sensor_id;sensor_type;location;lat;lon;timestamp;P1;durP1;ratioP1;P2;durP2;ratioP2
4428;SDS011;2227;47.810;8.810;2022-10-28T03:46:20;12.98;;;7.15;;
4428;SDS011;2227;47.810;8.810;2022-10-28T03:48:47;10.10;;;6.53;;
4428;SDS011;2227;47.810;8.810;2022-10-28T03:51:13;23.08;;;15.63;;
4428;SDS011;2227;47.810;8.810;2022-10-28T03:53:40;19.67;;;12.43;;
4428;SDS011;2227;47.810;8.810;2022-10-28T03:56:07;13.93;;;9.48;;
4428;SDS011;2227;47.810;8.810;2022-10-28T03:58:33;12.07;;;9.02;;
4428;SDS011;2227;47.810;8.810;2022-10-28T04:01:06;10.13;;;6.70;;
4428;SDS011;2227;47.810;8.810;2022-10-28T04:03:33;12.45;;;5.60;;
4428;SDS011;2227;47.810;8.810;2022-10-28T04:05:59;9.70;;;5.57;;
4428;SDS011;2227;47.810;8.810;2022-10-28T04:08:26;9.50;;;5.60;;
4428;SDS011;2227;47.810;8.810;2022-10-28T04:10:53;9.27;;;5.20;;
4428;SDS011;2227;47.810;8.810;2022-10-28T04:13:19;10.73;;;5.93;;
4428;SDS011;2227;47.810;8.810;2022-10-28T04:15:46;8.77;;;5.50;;
4428;SDS011;2227;47.810;8.810;2022-10-28T04:18:13;8.98;;;4.88;;
4428;SDS011;2227;47.810;8.810;2022-10-28T04:20:40;11.20;;;5.90;;
4428;SDS011;2227;47.810;8.810;2022-10-28T04:23:07;8.50;;;5.55;;
4428;SDS011;2227;47.810;8.810;2022-10-28T04:25:39;17.15;;;12.75;;
4428;SDS011;2227;47.810;8.810;2022-10-28T04:28:06;12.48;;;10.63;;
4428;SDS011;2227;47.810;8.810;2022-10-28T04:30:33;11.95;;;7.35;;
4428;SDS011;2227;47.810;8.810;2022-10-28T04:32:59;11.30;;;6.13;;
4428;SDS011;2227;47.810;8.810;2022-10-28T04:35:26;9.60;;;6.50;;
4428;SDS011;2227;47.810;8.810;2022-10-28T04:37:53;9.90;;;6.07;;
4428;SDS011;2227;47.810;8.810;2022-10-28T04:40:20;9.27;;;5.75;;
4428;SDS011;2227;47.810;8.810;2022-10-28T04:42:47;10.38;;;5.38;;
4428;SDS011;2227;47.810;8.810;2022-10-28T04:45:14;8.60;;;5.05;;
4428;SDS011;2227;47.810;8.810;2022-10-28T04:47:41;7.50;;;4.70;;
4428;SDS011;2227;47.810;8.810;2022-10-28T04:50:07;10.98;;;5.25;;
4428;SDS011;2227;47.810;8.810;2022-10-28T04:52:34;9.82;;;5.28;;
4428;SDS011;2227;47.810;8.810;2022-10-28T04:55:01;11.00;;;5.30;;
4428;SDS011;2227;47.810;8.810;2022-10-28T04:57:28;9.55;;;5.60;;
4428;SDS011;2227;47.810;8.810;2022-10-28T04:59:54;10.23;;;5.90;;
4428;SDS011;2227;47.810;8.810;2022-10-28T05:02:21;11.63;;;6.50;;
4428;SDS011;2227;47.810;8.810;2022-10-28T05:04:48;11.15;;;5.38;;
4428;SDS011;2227;47.810;8.810;2022-10-28T05:07:15;12.48;;;5.47;;
4428;SDS011;2227;47.810;8.810;2022-10-28T05:09:47;11.45;;;5.68;;
4428;SDS011;2227;47.810;8.810;2022-10-28T05:12:14;11.13;;;5.20;;
4428;SDS011;2227;47.810;8.810;2022-10-28T05:14:41;9.90;;;5.00;;
4428;SDS011;2227;47.810;8.810;2022-10-28T05:17:08;12.15;;;4.80;;
4428;SDS011;2227;47.810;8.810;2022-10-28T05:19:36;8.57;;;4.88;;
4428;SDS011;2227;47.810;8.810;2022-10-28T05:22:03;12.85;;;5.22;;
4428;SDS011;2227;47.810;8.810;2022-10-28T05:24:29;9.02;;;5.03;;
4428;SDS011;2227;47.810;8.810;2022-10-28T05:26:57;8.30;;;4.70;;
4428;SDS011;2227;47.810;8.810;2022-10-28T05:29:24;9.85;;;5.63;;
4428;SDS011;2227;47.810;8.810;2022-10-28T05:31:58;12.70;;;5.45;;
4428;SDS011;2227;47.810;8.810;2022-10-28T05:34:25;11.63;;;6.15;;
4428;SDS011;2227;47.810;8.810;2022-10-28T05:36:52;11.60;;;6.63;;
4428;SDS011;2227;47.810;8.810;2022-10-28T05:39:18;13.73;;;6.15;;
4428;SDS011;2227;47.810;8.810;2022-10-28T05:41:45;13.30;;;5.72;;
4428;SDS011;2227;47.810;8.810;2022-10-28T05:44:12;12.00;;;5.95;;
4428;SDS011;2227;47.810;8.810;2022-10-28T05:46:38;13.00;;;6.65;;
4428;SDS011;2227;47.810;8.810;2022-10-28T05:49:05;12.05;;;6.85;;
4428;SDS011;2227;47.810;8.810;2022-10-28T05:51:32;10.48;;;6.20;;
4428;SDS011;2227;47.810;8.810;2022-10-28T05:53:59;11.32;;;6.50;;
4428;SDS011;2227;47.810;8.810;2022-10-28T05:56:25;12.48;;;6.00;;
4428;SDS011;2227;47.810;8.810;2022-10-28T05:58:52;9.82;;;5.63;;
4428;SDS011;2227;47.810;8.810;2022-10-28T06:01:19;12.98;;;6.40;;
4428;SDS011;2227;47.810;8.810;2022-10-28T06:03:46;10.70;;;6.85;;
4428;SDS011;2227;47.810;8.810;2022-10-28T06:06:12;12.77;;;7.28;;
4428;SDS011;2227;47.810;8.810;2022-10-28T06:08:39;12.52;;;6.32;;
4428;SDS011;2227;47.810;8.810;2022-10-28T06:11:06;14.15;;;6.43;;
4428;SDS011;2227;47.810;8.810;2022-10-28T06:13:33;11.23;;;6.82;;
4428;SDS011;2227;47.810;8.810;2022-10-28T06:15:59;12.93;;;7.63;;
4428;SDS011;2227;47.810;8.810;2022-10-28T06:18:26;10.57;;;6.55;;
4428;SDS011;2227;47.810;8.810;2022-10-28T06:20:54;8.95;;;6.30;;
4428;SDS011;2227;47.810;8.810;2022-10-28T06:23:24;18.27;;;6.47;;
4428;SDS011;2227;47.810;8.810;2022-10-28T06:25:57;11.93;;;6.28;;
4428;SDS011;2227;47.810;8.810;2022-10-28T06:28:25;12.48;;;5.90;;
4428;SDS011;2227;47.810;8.810;2022-10-28T06:30:53;12.75;;;6.28;;
4428;SDS011;2227;47.810;8.810;2022-10-28T06:33:20;13.57;;;6.47;;
4428;SDS011;2227;47.810;8.810;2022-10-28T06:35:46;11.70;;;6.20;;
4428;SDS011;2227;47.810;8.810;2022-10-28T06:38:13;13.70;;;6.80;;
4428;SDS011;2227;47.810;8.810;2022-10-28T06:40:40;15.85;;;5.90;;
4428;SDS011;2227;47.810;8.810;2022-10-28T06:43:10;19.58;;;7.03;;
4428;SDS011;2227;47.810;8.810;2022-10-28T06:45:39;26.95;;;15.00;;
4428;SDS011;2227;47.810;8.810;2022-10-28T06:48:05;30.63;;;16.70;;
4428;SDS011;2227;47.810;8.810;2022-10-28T06:50:33;28.73;;;14.95;;
4428;SDS011;2227;47.810;8.810;2022-10-28T06:53:00;29.65;;;14.55;;
4428;SDS011;2227;47.810;8.810;2022-10-28T06:55:28;28.23;;;16.73;;
4428;SDS011;2227;47.810;8.810;2022-10-28T06:57:59;44.35;;;26.63;;
4428;SDS011;2227;47.810;8.810;2022-10-28T07:00:27;56.10;;;34.97;;
4428;SDS011;2227;47.810;8.810;2022-10-28T07:02:56;44.13;;;28.25;;
4428;SDS011;2227;47.810;8.810;2022-10-28T07:05:23;44.20;;;26.55;;
4428;SDS011;2227;47.810;8.810;2022-10-28T07:07:52;36.47;;;22.95;;
4428;SDS011;2227;47.810;8.810;2022-10-28T07:10:19;26.77;;;15.32;;
4428;SDS011;2227;47.810;8.810;2022-10-28T07:12:46;20.40;;;9.05;;
4428;SDS011;2227;47.810;8.810;2022-10-28T07:15:12;15.00;;;7.88;;
4428;SDS011;2227;47.810;8.810;2022-10-28T07:17:39;19.30;;;7.53;;
4428;SDS011;2227;47.810;8.810;2022-10-28T07:20:06;19.13;;;6.70;;
4428;SDS011;2227;47.810;8.810;2022-10-28T07:22:33;14.88;;;6.97;;
4428;SDS011;2227;47.810;8.810;2022-10-28T07:25:00;13.60;;;6.25;;
4428;SDS011;2227;47.810;8.810;2022-10-28T07:27:27;14.20;;;6.50;;
4428;SDS011;2227;47.810;8.810;2022-10-28T07:29:53;13.85;;;6.28;;
4428;SDS011;2227;47.810;8.810;2022-10-28T07:32:20;13.52;;;6.05;;
4428;SDS011;2227;47.810;8.810;2022-10-28T07:34:47;17.63;;;8.82;;
4428;SDS011;2227;47.810;8.810;2022-10-28T07:37:13;17.23;;;8.77;;
4428;SDS011;2227;47.810;8.810;2022-10-28T07:39:40;13.07;;;8.50;;
4428;SDS011;2227;47.810;8.810;2022-10-28T07:42:07;17.52;;;8.13;;
4428;SDS011;2227;47.810;8.810;2022-10-28T07:44:34;16.67;;;6.78;;
4428;SDS011;2227;47.810;8.810;2022-10-28T07:47:00;13.15;;;6.25;;
4428;SDS011;2227;47.810;8.810;2022-10-28T07:49:27;13.70;;;6.18;;
4428;SDS011;2227;47.810;8.810;2022-10-28T07:51:54;16.35;;;6.25;;
4428;SDS011;2227;47.810;8.810;2022-10-28T07:54:21;14.88;;;8.10;;
4428;SDS011;2227;47.810;8.810;2022-10-28T07:56:48;14.52;;;7.13;;
4428;SDS011;2227;47.810;8.810;2022-10-28T07:59:14;14.98;;;6.93;;
4428;SDS011;2227;47.810;8.810;2022-10-28T08:01:41;11.77;;;6.43;;
4428;SDS011;2227;47.810;8.810;2022-10-28T08:04:08;12.10;;;7.63;;
4428;SDS011;2227;47.810;8.810;2022-10-28T08:06:35;15.38;;;7.47;;
4428;SDS011;2227;47.810;8.810;2022-10-28T08:09:02;12.80;;;6.95;;
4428;SDS011;2227;47.810;8.810;2022-10-28T08:11:28;11.98;;;7.10;;
4428;SDS011;2227;47.810;8.810;2022-10-28T08:13:55;13.10;;;8.23;;
4428;SDS011;2227;47.810;8.810;2022-10-28T08:16:22;14.65;;;6.63;;
4428;SDS011;2227;47.810;8.810;2022-10-28T08:18:49;18.05;;;7.93;;
4428;SDS011;2227;47.810;8.810;2022-10-28T08:21:18;14.75;;;7.10;;
4428;SDS011;2227;47.810;8.810;2022-10-28T08:23:46;17.40;;;7.72;;
4428;SDS011;2227;47.810;8.810;2022-10-28T08:26:13;14.43;;;7.22;;
4428;SDS011;2227;47.810;8.810;2022-10-28T08:28:41;16.88;;;7.60;;
4428;SDS011;2227;47.810;8.810;2022-10-28T08:31:08;14.68;;;7.07;;
4428;SDS011;2227;47.810;8.810;2022-10-28T08:33:38;14.98;;;6.47;;
4428;SDS011;2227;47.810;8.810;2022-10-28T08:36:12;12.38;;;5.95;;
4428;SDS011;2227;47.810;8.810;2022-10-28T08:38:44;13.48;;;6.70;;
4428;SDS011;2227;47.810;8.810;2022-10-28T08:41:14;12.80;;;6.65;;
4428;SDS011;2227;47.810;8.810;2022-10-28T08:46:46;11.82;;;7.03;;
4428;SDS011;2227;47.810;8.810;2022-10-28T08:49:18;10.90;;;6.82;;
4428;SDS011;2227;47.810;8.810;2022-10-28T08:51:54;12.15;;;6.82;;
4428;SDS011;2227;47.810;8.810;2022-10-28T08:54:30;13.18;;;7.72;;
4428;SDS011;2227;47.810;8.810;2022-10-28T08:57:03;14.68;;;8.93;;
4428;SDS011;2227;47.810;8.810;2022-10-28T08:59:39;16.92;;;8.15;;
4428;SDS011;2227;47.810;8.810;2022-10-28T09:04:43;14.50;;;7.93;;
4428;SDS011;2227;47.810;8.810;2022-10-28T09:07:18;13.38;;;8.45;;
4428;SDS011;2227;47.810;8.810;2022-10-28T09:09:47;11.15;;;6.47;;
4428;SDS011;2227;47.810;8.810;2022-10-28T09:15:10;13.02;;;6.45;;
4428;SDS011;2227;47.810;8.810;2022-10-28T09:26:19;12.02;;;6.53;;
4428;SDS011;2227;47.810;8.810;2022-10-28T09:37:18;10.80;;;7.30;;
4428;SDS011;2227;47.810;8.810;2022-10-28T09:39:54;12.75;;;7.10;;
4428;SDS011;2227;47.810;8.810;2022-10-28T09:42:29;14.20;;;9.25;;
4428;SDS011;2227;47.810;8.810;2022-10-28T09:45:05;16.88;;;10.40;;
4428;SDS011;2227;47.810;8.810;2022-10-28T09:47:42;15.90;;;10.48;;
4428;SDS011;2227;47.810;8.810;2022-10-28T09:50:22;20.17;;;10.85;;
4428;SDS011;2227;47.810;8.810;2022-10-28T09:55:34;16.00;;;10.23;;
4428;SDS011;2227;47.810;8.810;2022-10-28T09:58:02;13.35;;;9.38;;
4428;SDS011;2227;47.810;8.810;2022-10-28T10:00:29;13.00;;;9.35;;
4428;SDS011;2227;47.810;8.810;2022-10-28T10:02:57;14.25;;;9.07;;
4428;SDS011;2227;47.810;8.810;2022-10-28T10:05:24;16.98;;;9.93;;
4428;SDS011;2227;47.810;8.810;2022-10-28T10:10:33;11.45;;;8.07;;
4428;SDS011;2227;47.810;8.810;2022-10-28T10:13:09;12.60;;;7.47;;
4428;SDS011;2227;47.810;8.810;2022-10-28T10:15:39;11.25;;;7.00;;
4428;SDS011;2227;47.810;8.810;2022-10-28T10:18:45;13.00;;;7.45;;
4428;SDS011;2227;47.810;8.810;2022-10-28T10:21:07;13.35;;;8.10;;
4428;SDS011;2227;47.810;8.810;2022-10-28T10:23:34;11.73;;;7.20;;
4428;SDS011;2227;47.810;8.810;2022-10-28T10:26:03;11.63;;;7.85;;
4428;SDS011;2227;47.810;8.810;2022-10-28T10:28:38;14.10;;;8.02;;
4428;SDS011;2227;47.810;8.810;2022-10-28T10:31:17;14.48;;;8.57;;
4428;SDS011;2227;47.810;8.810;2022-10-28T10:33:47;14.48;;;7.75;;
4428;SDS011;2227;47.810;8.810;2022-10-28T10:36:16;15.50;;;7.82;;
4428;SDS011;2227;47.810;8.810;2022-10-28T10:38:51;12.05;;;7.60;;
4428;SDS011;2227;47.810;8.810;2022-10-28T10:49:32;9.23;;;6.70;;
4428;SDS011;2227;47.810;8.810;2022-10-28T10:52:13;13.20;;;7.10;;
4428;SDS011;2227;47.810;8.810;2022-10-28T10:54:56;12.93;;;6.93;;
4428;SDS011;2227;47.810;8.810;2022-10-28T10:57:26;13.32;;;7.05;;
4428;SDS011;2227;47.810;8.810;2022-10-28T10:59:54;11.07;;;7.53;;
4428;SDS011;2227;47.810;8.810;2022-10-28T11:05:06;13.00;;;6.45;;
4428;SDS011;2227;47.810;8.810;2022-10-28T11:07:35;10.02;;;7.00;;
4428;SDS011;2227;47.810;8.810;2022-10-28T11:10:05;10.10;;;6.80;;
4428;SDS011;2227;47.810;8.810;2022-10-28T11:13:21;13.00;;;6.93;;
4428;SDS011;2227;47.810;8.810;2022-10-28T11:15:58;11.50;;;7.18;;
4428;SDS011;2227;47.810;8.810;2022-10-28T11:18:40;15.63;;;7.63;;
4428;SDS011;2227;47.810;8.810;2022-10-28T11:26:43;14.35;;;6.90;;
4428;SDS011;2227;47.810;8.810;2022-10-28T11:29:18;9.75;;;6.35;;
4428;SDS011;2227;47.810;8.810;2022-10-28T11:32:03;11.68;;;6.07;;
4428;SDS011;2227;47.810;8.810;2022-10-28T11:34:39;11.80;;;5.95;;
4428;SDS011;2227;47.810;8.810;2022-10-28T11:43:17;11.13;;;5.45;;
4428;SDS011;2227;47.810;8.810;2022-10-28T11:46:06;10.18;;;5.30;;
4428;SDS011;2227;47.810;8.810;2022-10-28T11:54:51;9.63;;;4.72;;
4428;SDS011;2227;47.810;8.810;2022-10-28T12:06:52;8.52;;;4.72;;
4428;SDS011;2227;47.810;8.810;2022-10-28T12:14:59;12.88;;;5.00;;
4428;SDS011;2227;47.810;8.810;2022-10-28T12:17:52;7.40;;;3.80;;
4428;SDS011;2227;47.810;8.810;2022-10-28T12:23:12;6.82;;;4.40;;
4428;SDS011;2227;47.810;8.810;2022-10-28T12:25:42;7.35;;;4.30;;
4428;SDS011;2227;47.810;8.810;2022-10-28T12:28:20;12.07;;;4.45;;
4428;SDS011;2227;47.810;8.810;2022-10-28T12:30:51;6.95;;;4.25;;
4428;SDS011;2227;47.810;8.810;2022-10-28T12:33:42;8.13;;;3.45;;
4428;SDS011;2227;47.810;8.810;2022-10-28T12:36:15;7.55;;;3.50;;
4428;SDS011;2227;47.810;8.810;2022-10-28T12:44:13;6.35;;;3.05;;
4428;SDS011;2227;47.810;8.810;2022-10-28T12:52:30;7.88;;;3.90;;
4428;SDS011;2227;47.810;8.810;2022-10-28T12:57:59;7.65;;;3.78;;
4428;SDS011;2227;47.810;8.810;2022-10-28T13:00:53;7.93;;;3.50;;
4428;SDS011;2227;47.810;8.810;2022-10-28T13:03:25;6.65;;;3.60;;
4428;SDS011;2227;47.810;8.810;2022-10-28T13:27:56;5.57;;;2.78;;
4428;SDS011;2227;47.810;8.810;2022-10-28T13:30:24;6.85;;;2.95;;
4428;SDS011;2227;47.810;8.810;2022-10-28T13:33:01;6.82;;;3.38;;
4428;SDS011;2227;47.810;8.810;2022-10-28T13:35:49;5.93;;;2.70;;
4428;SDS011;2227;47.810;8.810;2022-10-28T13:38:18;8.57;;;3.22;;
4428;SDS011;2227;47.810;8.810;2022-10-28T13:49:25;7.07;;;3.20;;
4428;SDS011;2227;47.810;8.810;2022-10-28T13:54:50;8.13;;;3.50;;
4428;SDS011;2227;47.810;8.810;2022-10-28T13:57:24;7.82;;;3.75;;
4428;SDS011;2227;47.810;8.810;2022-10-28T13:59:58;6.80;;;2.90;;
4428;SDS011;2227;47.810;8.810;2022-10-28T14:02:26;7.43;;;3.13;;
4428;SDS011;2227;47.810;8.810;2022-10-28T14:07:32;8.60;;;2.95;;
4428;SDS011;2227;47.810;8.810;2022-10-28T14:12:59;9.35;;;3.08;;
4428;SDS011;2227;47.810;8.810;2022-10-28T14:15:35;6.15;;;2.47;;
4428;SDS011;2227;47.810;8.810;2022-10-28T14:20:59;8.00;;;2.60;;
4428;SDS011;2227;47.810;8.810;2022-10-28T14:33:34;10.68;;;6.10;;
4428;SDS011;2227;47.810;8.810;2022-10-28T14:36:40;21.48;;;13.35;;
4428;SDS011;2227;47.810;8.810;2022-10-28T14:45:01;10.07;;;4.65;;
4428;SDS011;2227;47.810;8.810;2022-10-28T14:50:48;11.43;;;4.53;;
4428;SDS011;2227;47.810;8.810;2022-10-28T14:53:19;11.43;;;4.53;;
4428;SDS011;2227;47.810;8.810;2022-10-28T14:56:01;7.50;;;3.28;;
4428;SDS011;2227;47.810;8.810;2022-10-28T14:58:41;7.57;;;3.75;;
4428;SDS011;2227;47.810;8.810;2022-10-28T15:03:42;6.30;;;3.75;;
4428;SDS011;2227;47.810;8.810;2022-10-28T15:08:56;11.32;;;3.90;;
4428;SDS011;2227;47.810;8.810;2022-10-28T15:11:48;10.50;;;4.20;;
4428;SDS011;2227;47.810;8.810;2022-10-28T15:16:53;9.25;;;5.07;;
4428;SDS011;2227;47.810;8.810;2022-10-28T15:19:21;29.55;;;17.02;;
4428;SDS011;2227;47.810;8.810;2022-10-28T15:22:04;11.75;;;5.75;;
4428;SDS011;2227;47.810;8.810;2022-10-28T15:25:20;8.05;;;4.55;;
4428;SDS011;2227;47.810;8.810;2022-10-28T15:27:40;8.43;;;4.25;;
4428;SDS011;2227;47.810;8.810;2022-10-28T15:30:22;9.50;;;4.88;;
4428;SDS011;2227;47.810;8.810;2022-10-28T15:32:54;8.77;;;4.22;;
4428;SDS011;2227;47.810;8.810;2022-10-28T15:35:41;10.05;;;4.43;;
4428;SDS011;2227;47.810;8.810;2022-10-28T15:40:51;8.52;;;4.45;;
4428;SDS011;2227;47.810;8.810;2022-10-28T15:43:27;9.38;;;4.90;;
4428;SDS011;2227;47.810;8.810;2022-10-28T15:46:09;13.88;;;5.45;;
4428;SDS011;2227;47.810;8.810;2022-10-28T15:48:40;9.32;;;4.60;;
4428;SDS011;2227;47.810;8.810;2022-10-28T15:51:11;12.55;;;4.47;;
4428;SDS011;2227;47.810;8.810;2022-10-28T15:53:45;11.20;;;4.63;;
4428;SDS011;2227;47.810;8.810;2022-10-28T15:58:41;8.27;;;4.85;;
4428;SDS011;2227;47.810;8.810;2022-10-28T16:04:05;10.55;;;4.75;;
4428;SDS011;2227;47.810;8.810;2022-10-28T16:06:51;9.40;;;5.10;;
4428;SDS011;2227;47.810;8.810;2022-10-28T16:09:29;11.02;;;5.03;;
4428;SDS011;2227;47.810;8.810;2022-10-28T16:12:02;8.55;;;5.00;;
4428;SDS011;2227;47.810;8.810;2022-10-28T16:14:44;10.18;;;4.70;;
4428;SDS011;2227;47.810;8.810;2022-10-28T16:17:14;12.73;;;6.03;;
4428;SDS011;2227;47.810;8.810;2022-10-28T16:19:53;8.80;;;5.97;;
4428;SDS011;2227;47.810;8.810;2022-10-28T16:22:24;7.00;;;3.80;;
4428;SDS011;2227;47.810;8.810;2022-10-28T16:24:52;7.00;;;3.80;;
4428;SDS011;2227;47.810;8.810;2022-10-28T16:27:20;9.80;;;4.00;;
4428;SDS011;2227;47.810;8.810;2022-10-28T16:29:50;8.70;;;5.43;;
4428;SDS011;2227;47.810;8.810;2022-10-28T16:32:20;8.43;;;4.82;;
4428;SDS011;2227;47.810;8.810;2022-10-28T16:35:00;6.93;;;4.15;;
4428;SDS011;2227;47.810;8.810;2022-10-28T16:37:28;7.75;;;3.88;;
4428;SDS011;2227;47.810;8.810;2022-10-28T16:39:57;8.52;;;4.40;;
4428;SDS011;2227;47.810;8.810;2022-10-28T16:42:24;8.65;;;4.07;;
4428;SDS011;2227;47.810;8.810;2022-10-28T16:44:51;8.10;;;4.82;;
4428;SDS011;2227;47.810;8.810;2022-10-28T16:47:19;10.13;;;5.40;;
4428;SDS011;2227;47.810;8.810;2022-10-28T16:49:46;11.93;;;5.72;;
4428;SDS011;2227;47.810;8.810;2022-10-28T16:52:24;10.50;;;7.80;;
4428;SDS011;2227;47.810;8.810;2022-10-28T16:54:52;12.63;;;10.90;;
4428;SDS011;2227;47.810;8.810;2022-10-28T16:57:20;10.10;;;7.93;;
4428;SDS011;2227;47.810;8.810;2022-10-28T16:59:47;8.90;;;5.35;;
4428;SDS011;2227;47.810;8.810;2022-10-28T17:02:18;10.05;;;5.10;;
4428;SDS011;2227;47.810;8.810;2022-10-28T17:04:49;11.32;;;5.47;;
4428;SDS011;2227;47.810;8.810;2022-10-28T17:07:15;10.98;;;6.30;;
4428;SDS011;2227;47.810;8.810;2022-10-28T17:09:43;12.27;;;6.43;;
4428;SDS011;2227;47.810;8.810;2022-10-28T17:12:14;9.15;;;5.28;;
4428;SDS011;2227;47.810;8.810;2022-10-28T17:14:44;12.77;;;5.25;;
4428;SDS011;2227;47.810;8.810;2022-10-28T17:17:11;8.73;;;5.50;;
4428;SDS011;2227;47.810;8.810;2022-10-28T17:19:38;10.23;;;5.68;;
4428;SDS011;2227;47.810;8.810;2022-10-28T17:22:07;11.70;;;5.47;;
4428;SDS011;2227;47.810;8.810;2022-10-28T17:24:35;11.38;;;5.10;;
4428;SDS011;2227;47.810;8.810;2022-10-28T17:27:03;11.20;;;4.95;;
4428;SDS011;2227;47.810;8.810;2022-10-28T17:29:30;10.75;;;6.00;;
4428;SDS011;2227;47.810;8.810;2022-10-28T17:31:57;10.30;;;7.43;;
4428;SDS011;2227;47.810;8.810;2022-10-28T17:34:24;9.48;;;5.53;;
4428;SDS011;2227;47.810;8.810;2022-10-28T17:36:51;11.23;;;5.55;;
4428;SDS011;2227;47.810;8.810;2022-10-28T17:39:18;15.60;;;11.48;;
4428;SDS011;2227;47.810;8.810;2022-10-28T17:41:51;9.73;;;6.80;;
4428;SDS011;2227;47.810;8.810;2022-10-28T17:44:18;12.93;;;6.53;;
4428;SDS011;2227;47.810;8.810;2022-10-28T17:46:48;9.93;;;5.85;;
4428;SDS011;2227;47.810;8.810;2022-10-28T17:49:16;8.25;;;5.07;;
4428;SDS011;2227;47.810;8.810;2022-10-28T17:51:43;13.23;;;6.75;;
4428;SDS011;2227;47.810;8.810;2022-10-28T17:54:13;13.82;;;6.75;;
4428;SDS011;2227;47.810;8.810;2022-10-28T17:56:43;14.50;;;9.27;;
4428;SDS011;2227;47.810;8.810;2022-10-28T17:59:10;12.95;;;7.90;;
4428;SDS011;2227;47.810;8.810;2022-10-28T18:01:37;11.63;;;7.93;;
4428;SDS011;2227;47.810;8.810;2022-10-28T18:04:04;12.63;;;7.65;;
4428;SDS011;2227;47.810;8.810;2022-10-28T18:06:31;11.20;;;6.95;;
4428;SDS011;2227;47.810;8.810;2022-10-28T18:08:58;13.77;;;7.22;;
4428;SDS011;2227;47.810;8.810;2022-10-28T18:11:25;15.82;;;9.68;;
4428;SDS011;2227;47.810;8.810;2022-10-28T18:13:52;16.17;;;9.25;;
4428;SDS011;2227;47.810;8.810;2022-10-28T18:16:22;11.48;;;7.25;;
4428;SDS011;2227;47.810;8.810;2022-10-28T18:18:53;12.10;;;7.10;;
4428;SDS011;2227;47.810;8.810;2022-10-28T18:21:21;11.43;;;6.75;;
4428;SDS011;2227;47.810;8.810;2022-10-28T18:23:50;16.75;;;14.13;;
4428;SDS011;2227;47.810;8.810;2022-10-28T18:26:17;15.90;;;10.65;;
4428;SDS011;2227;47.810;8.810;2022-10-28T18:28:45;11.80;;;7.10;;
4428;SDS011;2227;47.810;8.810;2022-10-28T18:31:13;15.60;;;14.07;;
4428;SDS011;2227;47.810;8.810;2022-10-28T18:33:44;14.02;;;12.48;;
4428;SDS011;2227;47.810;8.810;2022-10-28T18:36:16;13.77;;;12.48;;
4428;SDS011;2227;47.810;8.810;2022-10-28T18:38:47;14.65;;;12.38;;
4428;SDS011;2227;47.810;8.810;2022-10-28T18:41:16;12.73;;;7.22;;
4428;SDS011;2227;47.810;8.810;2022-10-28T18:43:44;10.77;;;7.43;;
4428;SDS011;2227;47.810;8.810;2022-10-28T18:46:11;11.70;;;7.40;;
4428;SDS011;2227;47.810;8.810;2022-10-28T18:48:38;14.20;;;6.70;;
4428;SDS011;2227;47.810;8.810;2022-10-28T18:51:06;12.25;;;6.65;;
4428;SDS011;2227;47.810;8.810;2022-10-28T18:53:36;9.88;;;6.57;;
4428;SDS011;2227;47.810;8.810;2022-10-28T18:56:09;10.68;;;6.57;;
4428;SDS011;2227;47.810;8.810;2022-10-28T18:58:37;13.07;;;7.72;;
4428;SDS011;2227;47.810;8.810;2022-10-28T19:01:11;13.23;;;9.55;;
4428;SDS011;2227;47.810;8.810;2022-10-28T19:03:40;15.77;;;8.07;;
4428;SDS011;2227;47.810;8.810;2022-10-28T19:06:12;14.18;;;10.10;;
4428;SDS011;2227;47.810;8.810;2022-10-28T19:08:40;13.10;;;9.38;;
4428;SDS011;2227;47.810;8.810;2022-10-28T19:11:08;11.10;;;8.15;;
4428;SDS011;2227;47.810;8.810;2022-10-28T19:13:37;11.35;;;7.22;;
4428;SDS011;2227;47.810;8.810;2022-10-28T19:16:05;12.65;;;6.90;;
4428;SDS011;2227;47.810;8.810;2022-10-28T19:18:33;12.15;;;6.15;;
4428;SDS011;2227;47.810;8.810;2022-10-28T19:21:04;14.02;;;6.93;;
4428;SDS011;2227;47.810;8.810;2022-10-28T19:23:33;12.25;;;6.85;;
4428;SDS011;2227;47.810;8.810;2022-10-28T19:26:00;9.07;;;5.82;;
4428;SDS011;2227;47.810;8.810;2022-10-28T19:28:29;10.88;;;6.68;;
4428;SDS011;2227;47.810;8.810;2022-10-28T19:31:01;9.70;;;6.82;;
4428;SDS011;2227;47.810;8.810;2022-10-28T19:33:30;10.70;;;6.25;;
4428;SDS011;2227;47.810;8.810;2022-10-28T19:36:00;9.25;;;6.38;;
4428;SDS011;2227;47.810;8.810;2022-10-28T19:38:36;12.40;;;6.47;;
4428;SDS011;2227;47.810;8.810;2022-10-28T19:41:04;9.95;;;6.68;;
4428;SDS011;2227;47.810;8.810;2022-10-28T19:43:33;13.38;;;8.43;;
4428;SDS011;2227;47.810;8.810;2022-10-28T19:46:10;14.80;;;7.65;;
4428;SDS011;2227;47.810;8.810;2022-10-28T19:48:38;11.57;;;6.80;;
4428;SDS011;2227;47.810;8.810;2022-10-28T19:51:07;11.07;;;6.47;;
4428;SDS011;2227;47.810;8.810;2022-10-28T19:53:35;10.88;;;6.50;;
4428;SDS011;2227;47.810;8.810;2022-10-28T19:56:02;14.18;;;6.10;;
4428;SDS011;2227;47.810;8.810;2022-10-28T19:58:30;10.20;;;5.78;;
4428;SDS011;2227;47.810;8.810;2022-10-28T20:00:58;11.38;;;6.57;;
4428;SDS011;2227;47.810;8.810;2022-10-28T20:03:30;13.52;;;6.60;;
4428;SDS011;2227;47.810;8.810;2022-10-28T20:06:10;15.27;;;8.70;;
4428;SDS011;2227;47.810;8.810;2022-10-28T20:08:41;13.93;;;8.57;;
4428;SDS011;2227;47.810;8.810;2022-10-28T20:11:10;13.32;;;7.38;;
4428;SDS011;2227;47.810;8.810;2022-10-28T20:13:39;11.18;;;7.13;;
4428;SDS011;2227;47.810;8.810;2022-10-28T20:16:10;10.05;;;7.10;;
4428;SDS011;2227;47.810;8.810;2022-10-28T20:18:38;12.10;;;6.78;;
4428;SDS011;2227;47.810;8.810;2022-10-28T20:21:06;13.30;;;9.48;;
4428;SDS011;2227;47.810;8.810;2022-10-28T20:23:41;13.35;;;8.57;;
4428;SDS011;2227;47.810;8.810;2022-10-28T20:26:09;14.18;;;7.65;;
4428;SDS011;2227;47.810;8.810;2022-10-28T20:28:37;11.90;;;7.05;;
4428;SDS011;2227;47.810;8.810;2022-10-28T20:31:08;12.73;;;8.45;;
4428;SDS011;2227;47.810;8.810;2022-10-28T20:33:40;10.80;;;7.45;;
4428;SDS011;2227;47.810;8.810;2022-10-28T20:36:21;11.48;;;7.60;;
4428;SDS011;2227;47.810;8.810;2022-10-28T20:38:53;15.40;;;8.77;;
4428;SDS011;2227;47.810;8.810;2022-10-28T20:41:21;13.30;;;7.18;;
4428;SDS011;2227;47.810;8.810;2022-10-28T20:43:49;11.90;;;7.45;;
4428;SDS011;2227;47.810;8.810;2022-10-28T20:46:17;11.13;;;6.93;;
4428;SDS011;2227;47.810;8.810;2022-10-28T20:48:45;10.85;;;6.47;;
4428;SDS011;2227;47.810;8.810;2022-10-28T20:51:13;11.60;;;7.00;;
4428;SDS011;2227;47.810;8.810;2022-10-28T20:53:40;13.77;;;6.70;;
4428;SDS011;2227;47.810;8.810;2022-10-28T20:56:10;14.32;;;6.55;;
4428;SDS011;2227;47.810;8.810;2022-10-28T20:58:44;12.40;;;6.35;;
4428;SDS011;2227;47.810;8.810;2022-10-28T21:03:45;12.05;;;6.20;;
4428;SDS011;2227;47.810;8.810;2022-10-28T21:06:13;9.00;;;5.47;;
4428;SDS011;2227;47.810;8.810;2022-10-28T21:08:42;10.63;;;6.30;;
4428;SDS011;2227;47.810;8.810;2022-10-28T21:11:10;10.63;;;5.57;;
4428;SDS011;2227;47.810;8.810;2022-10-28T21:13:39;11.07;;;6.22;;
4428;SDS011;2227;47.810;8.810;2022-10-28T21:16:06;11.23;;;6.97;;
4428;SDS011;2227;47.810;8.810;2022-10-28T21:18:34;17.98;;;8.00;;
4428;SDS011;2227;47.810;8.810;2022-10-28T21:21:03;14.23;;;9.60;;
4428;SDS011;2227;47.810;8.810;2022-10-28T21:23:30;16.02;;;9.07;;
4428;SDS011;2227;47.810;8.810;2022-10-28T21:25:58;12.55;;;7.55;;
4428;SDS011;2227;47.810;8.810;2022-10-28T21:28:29;10.98;;;6.97;;
4428;SDS011;2227;47.810;8.810;2022-10-28T21:31:01;12.73;;;6.60;;
4428;SDS011;2227;47.810;8.810;2022-10-28T21:33:29;12.13;;;6.70;;
4428;SDS011;2227;47.810;8.810;2022-10-28T21:35:58;9.68;;;6.85;;
4428;SDS011;2227;47.810;8.810;2022-10-28T21:38:26;10.68;;;7.30;;
4428;SDS011;2227;47.810;8.810;2022-10-28T21:41:01;15.00;;;8.35;;
4428;SDS011;2227;47.810;8.810;2022-10-28T21:43:30;10.80;;;7.32;;
4428;SDS011;2227;47.810;8.810;2022-10-28T21:45:59;14.55;;;7.68;;
4428;SDS011;2227;47.810;8.810;2022-10-28T21:48:27;14.45;;;7.72;;
4428;SDS011;2227;47.810;8.810;2022-10-28T21:50:55;13.38;;;8.52;;
4428;SDS011;2227;47.810;8.810;2022-10-28T21:53:23;12.05;;;7.72;;
4428;SDS011;2227;47.810;8.810;2022-10-28T21:55:50;14.25;;;6.80;;
4428;SDS011;2227;47.810;8.810;2022-10-28T21:58:20;10.35;;;7.10;;